createdAt,value
2023-02-16T00:01:27.849Z,6.70
2023-02-16T00:03:56.517Z,6.70
2023-02-16T00:06:25.561Z,6.70
2023-02-16T00:08:55.821Z,6.60
2023-02-16T00:11:46.740Z,6.50
2023-02-16T00:14:16.036Z,6.50
2023-02-16T00:16:45.682Z,6.50
2023-02-16T00:19:19.107Z,6.50
2023-02-16T00:21:47.252Z,6.50
2023-02-16T00:24:15.616Z,6.40
2023-02-16T00:26:45.225Z,6.40
2023-02-16T00:29:19.227Z,6.50
2023-02-16T00:31:49.136Z,6.40
2023-02-16T00:34:33.476Z,6.40
2023-02-16T00:37:03.435Z,6.30
2023-02-16T00:39:32.199Z,6.20
2023-02-16T00:42:05.444Z,6.20
2023-02-16T00:44:38.064Z,6.30
2023-02-16T00:47:19.419Z,6.30
2023-02-16T00:49:48.155Z,6.30
2023-02-16T00:52:31.962Z,6.30
2023-02-16T00:55:02.010Z,6.30
2023-02-16T00:57:34.600Z,6.20
2023-02-16T01:00:06.337Z,6.30
2023-02-16T01:02:36.071Z,6.30
2023-02-16T01:05:04.572Z,6.30
2023-02-16T01:07:50.354Z,6.20
2023-02-16T01:10:36.829Z,6.20
2023-02-16T01:13:04.989Z,6.10
2023-02-16T01:15:35.447Z,6.10
2023-02-16T01:18:05.068Z,6.10
2023-02-16T01:20:35.294Z,6.10
2023-02-16T01:23:03.487Z,6.10
2023-02-16T01:25:31.671Z,6.00
2023-02-16T01:28:00.065Z,5.90
2023-02-16T01:30:28.626Z,5.90
2023-02-16T01:32:56.691Z,5.90
2023-02-16T01:35:30.671Z,5.90
2023-02-16T01:37:58.871Z,5.80
2023-02-16T01:40:36.882Z,5.80
2023-02-16T01:43:12.026Z,5.70
2023-02-16T01:45:44.235Z,5.70
2023-02-16T01:48:22.864Z,5.80
2023-02-16T01:50:58.645Z,5.70
2023-02-16T01:53:32.585Z,5.70
2023-02-16T01:56:05.918Z,5.70
2023-02-16T01:58:41.211Z,5.80
2023-02-16T02:01:48.265Z,5.70
2023-02-16T02:04:44.300Z,5.70
2023-02-16T02:07:20.320Z,5.70
2023-02-16T02:09:57.530Z,5.60
2023-02-16T02:12:30.787Z,5.60
2023-02-16T02:14:58.823Z,5.50
2023-02-16T02:17:27.617Z,5.50
2023-02-16T02:20:07.782Z,5.50
2023-02-16T02:23:24.202Z,5.60
2023-02-16T02:26:31.979Z,5.50
2023-02-16T02:29:18.525Z,5.40
2023-02-16T02:31:58.087Z,5.40
2023-02-16T02:34:40.796Z,5.40
2023-02-16T02:37:16.504Z,5.30
2023-02-16T02:39:53.044Z,5.30
2023-02-16T02:42:26.249Z,5.30
2023-02-16T02:45:03.353Z,5.40
2023-02-16T02:47:42.930Z,5.30
2023-02-16T02:51:09.165Z,5.30
2023-02-16T02:53:42.249Z,5.30
2023-02-16T02:56:33.150Z,5.30
2023-02-16T02:59:26.128Z,5.30
2023-02-16T03:01:59.353Z,5.30
2023-02-16T03:04:32.101Z,5.40
2023-02-16T03:07:02.862Z,5.40
2023-02-16T03:09:32.365Z,5.30
2023-02-16T03:12:19.671Z,5.30
2023-02-16T03:14:50.983Z,5.30
2023-02-16T03:17:41.778Z,5.30
2023-02-16T03:20:31.500Z,5.20
2023-02-16T03:23:17.685Z,5.30
2023-02-16T03:26:03.748Z,5.30
2023-02-16T03:28:52.266Z,5.30
2023-02-16T03:31:25.408Z,5.30
2023-02-16T03:33:55.415Z,5.30
2023-02-16T03:36:24.508Z,5.20
2023-02-16T03:38:53.039Z,5.20
2023-02-16T03:41:21.088Z,5.10
2023-02-16T03:43:49.129Z,5.10
2023-02-16T03:46:17.256Z,5.10
2023-02-16T03:48:45.328Z,5.10
2023-02-16T03:51:14.856Z,5.10
2023-02-16T03:53:42.870Z,5.10
2023-02-16T03:56:10.951Z,5.00
2023-02-16T03:58:38.984Z,5.00
2023-02-16T04:01:07.335Z,5.00
2023-02-16T04:03:35.584Z,5.00
2023-02-16T04:06:03.686Z,5.00
2023-02-16T04:08:33.121Z,5.00
2023-02-16T04:11:21.132Z,5.00
2023-02-16T04:13:48.220Z,5.00
2023-02-16T04:16:16.330Z,4.90
2023-02-16T04:18:44.414Z,4.90
2023-02-16T04:21:12.422Z,4.90
2023-02-16T04:23:41.903Z,4.90
2023-02-16T04:26:09.961Z,4.90
2023-02-16T04:28:38.024Z,4.90
2023-02-16T04:31:06.746Z,4.90
2023-02-16T04:33:35.106Z,4.90
2023-02-16T04:36:03.167Z,4.90
2023-02-16T04:38:31.180Z,4.90
2023-02-16T04:41:00.522Z,4.90
2023-02-16T04:43:28.751Z,4.90
2023-02-16T04:45:56.843Z,4.90
2023-02-16T04:48:24.989Z,4.90
2023-02-16T04:50:53.041Z,4.90
2023-02-16T04:53:21.079Z,4.90
2023-02-16T04:55:49.543Z,4.90
2023-02-16T04:58:18.962Z,4.80
2023-02-16T05:00:47.252Z,4.80
2023-02-16T05:03:15.356Z,4.80
2023-02-16T05:05:43.446Z,4.80
2023-02-16T05:08:11.474Z,4.80
2023-02-16T05:10:39.514Z,4.70
2023-02-16T05:13:24.823Z,4.70
2023-02-16T05:15:54.411Z,4.60
2023-02-16T05:18:22.523Z,4.60
2023-02-16T05:21:08.183Z,4.60
2023-02-16T05:23:36.185Z,4.60
2023-02-16T05:26:04.308Z,4.60
2023-02-16T05:28:32.443Z,4.60
2023-02-16T05:31:02.115Z,4.60
2023-02-16T05:33:30.324Z,4.70
2023-02-16T05:35:58.325Z,4.70
2023-02-16T05:38:26.578Z,4.60
2023-02-16T05:40:54.568Z,4.60
2023-02-16T05:43:22.560Z,4.60
2023-02-16T05:45:50.596Z,4.60
2023-02-16T05:48:19.941Z,4.50
2023-02-16T05:50:48.099Z,4.60
2023-02-16T05:53:16.087Z,4.50
2023-02-16T05:55:45.189Z,4.50
2023-02-16T05:58:13.275Z,4.50
2023-02-16T06:00:41.327Z,4.50
2023-02-16T06:03:09.408Z,4.50
2023-02-16T06:05:38.747Z,4.50
2023-02-16T06:08:06.764Z,4.50
2023-02-16T06:10:34.949Z,4.40
2023-02-16T06:13:02.971Z,4.50
2023-02-16T06:15:30.978Z,4.50
2023-02-16T06:17:59.076Z,4.50
2023-02-16T06:20:27.061Z,4.40
2023-02-16T06:22:56.415Z,4.50
2023-02-16T06:25:24.434Z,4.40
2023-02-16T06:27:52.765Z,4.50
2023-02-16T06:30:20.964Z,4.50
2023-02-16T06:32:49.080Z,4.50
2023-02-16T06:35:17.225Z,4.50
2023-02-16T06:37:45.705Z,4.50
2023-02-16T06:40:17.479Z,4.50
2023-02-16T06:42:45.761Z,4.50
2023-02-16T06:45:14.021Z,4.50
2023-02-16T06:47:42.072Z,4.50
2023-02-16T06:50:11.180Z,4.50
2023-02-16T06:52:39.210Z,4.60
2023-02-16T06:55:08.003Z,4.60
2023-02-16T06:57:37.385Z,4.60
2023-02-16T07:00:07.448Z,4.60
2023-02-16T07:02:37.498Z,4.60
2023-02-16T07:05:05.830Z,4.70
2023-02-16T07:07:33.873Z,4.70
2023-02-16T07:10:02.711Z,4.80
2023-02-16T07:12:30.887Z,4.80
2023-02-16T07:15:00.231Z,4.90
2023-02-16T07:17:28.290Z,4.90
2023-02-16T07:19:58.884Z,4.90
2023-02-16T07:22:29.750Z,5.00
2023-02-16T07:24:58.923Z,5.10
2023-02-16T07:27:27.296Z,5.10
2023-02-16T07:29:55.508Z,5.20
2023-02-16T07:32:25.008Z,5.10
2023-02-16T07:34:53.194Z,5.20
2023-02-16T07:37:21.199Z,5.20
2023-02-16T07:39:49.317Z,5.20
2023-02-16T07:42:17.431Z,5.20
2023-02-16T07:44:48.747Z,5.20
2023-02-16T07:47:16.756Z,5.20
2023-02-16T07:49:46.252Z,5.20
2023-02-16T07:52:14.361Z,5.20
2023-02-16T07:54:42.346Z,5.20
2023-02-16T07:57:11.072Z,5.30
2023-02-16T07:59:39.043Z,5.70
2023-02-16T08:02:07.403Z,6.10
2023-02-16T08:04:35.917Z,6.30
2023-02-16T08:07:05.308Z,6.40
2023-02-16T08:09:34.076Z,6.40
2023-02-16T08:12:02.168Z,6.60
2023-02-16T08:14:30.261Z,6.80
2023-02-16T08:16:58.335Z,6.90
2023-02-16T08:19:27.318Z,7.00
2023-02-16T08:21:55.369Z,7.00
2023-02-16T08:24:25.099Z,7.20
2023-02-16T08:26:53.796Z,7.20
2023-02-16T08:29:22.608Z,7.20
2023-02-16T08:31:51.463Z,7.20
2023-02-16T08:34:21.209Z,6.90
2023-02-16T08:36:56.294Z,6.70
2023-02-16T08:39:29.992Z,6.50
2023-02-16T08:41:59.020Z,6.30
2023-02-16T08:44:28.068Z,6.20
2023-02-16T08:46:59.241Z,6.20
2023-02-16T08:49:27.600Z,6.20
2023-02-16T08:51:57.914Z,6.20
2023-02-16T08:54:30.889Z,6.20
2023-02-16T08:57:00.070Z,6.20
2023-02-16T08:59:29.198Z,6.20
2023-02-16T09:01:58.082Z,6.20
2023-02-16T09:04:27.526Z,6.20
2023-02-16T09:06:56.368Z,6.20
2023-02-16T09:09:24.506Z,6.20
2023-02-16T09:11:53.880Z,6.30
2023-02-16T09:14:23.196Z,6.30
2023-02-16T09:16:51.415Z,6.30
2023-02-16T09:19:21.665Z,6.40
2023-02-16T09:21:52.115Z,6.50
2023-02-16T09:24:20.281Z,6.50
2023-02-16T09:26:52.821Z,6.60
2023-02-16T09:29:23.002Z,6.70
2023-02-16T09:31:52.244Z,6.80
2023-02-16T09:34:22.768Z,7.00
2023-02-16T09:36:52.290Z,7.20
2023-02-16T09:39:20.502Z,7.30
2023-02-16T09:42:12.442Z,7.40
2023-02-16T09:44:54.809Z,7.60
2023-02-16T09:47:29.468Z,7.70
2023-02-16T09:50:01.475Z,8.00
2023-02-16T09:52:37.489Z,8.10
2023-02-16T09:55:08.968Z,8.20
2023-02-16T09:57:46.216Z,8.20
2023-02-16T10:00:32.239Z,8.20
2023-02-16T10:03:14.690Z,8.20
2023-02-16T10:05:49.158Z,8.40
2023-02-16T10:08:25.879Z,8.50
2023-02-16T10:11:02.517Z,8.50
2023-02-16T10:13:38.695Z,8.50
2023-02-16T10:16:15.391Z,8.60
2023-02-16T10:18:49.610Z,8.70
2023-02-16T10:21:21.864Z,8.80
2023-02-16T10:23:53.341Z,8.90
2023-02-16T10:26:26.975Z,8.90
2023-02-16T10:28:59.106Z,8.90
2023-02-16T10:31:37.842Z,9.00
2023-02-16T10:34:20.263Z,9.00
2023-02-16T10:37:13.518Z,9.00
2023-02-16T10:39:47.362Z,9.00
2023-02-16T10:42:23.072Z,9.00
2023-02-16T10:44:59.334Z,9.10
2023-02-16T10:47:38.659Z,9.10
2023-02-16T10:50:17.596Z,9.20
2023-02-16T10:52:45.940Z,9.10
2023-02-16T10:55:14.197Z,9.20
2023-02-16T10:57:42.660Z,9.20
2023-02-16T11:00:16.825Z,9.20
2023-02-16T11:02:49.191Z,9.20
2023-02-16T11:05:32.574Z,9.20
2023-02-16T11:08:02.526Z,9.20
2023-02-16T11:10:41.187Z,9.20
2023-02-16T11:13:21.450Z,9.30
2023-02-16T11:15:54.828Z,9.30
2023-02-16T11:18:37.855Z,9.30
2023-02-16T11:21:07.651Z,9.40
2023-02-16T11:23:37.371Z,9.40
2023-02-16T11:26:07.605Z,9.50
2023-02-16T11:28:38.193Z,9.60
2023-02-16T11:31:14.396Z,9.70
2023-02-16T11:33:44.887Z,9.70
2023-02-16T11:36:28.889Z,9.80
2023-02-16T11:39:00.226Z,9.90
2023-02-16T11:41:29.535Z,10.00
2023-02-16T11:43:58.368Z,10.10
2023-02-16T11:46:26.969Z,10.20
2023-02-16T11:48:56.794Z,10.20
2023-02-16T11:51:34.253Z,10.20
2023-02-16T11:54:04.941Z,10.30
2023-02-16T11:56:34.495Z,10.30
2023-02-16T11:59:16.856Z,10.20
2023-02-16T12:01:56.333Z,10.30
2023-02-16T12:04:35.184Z,10.30
2023-02-16T12:07:15.576Z,10.30
2023-02-16T12:09:54.162Z,10.30
2023-02-16T12:12:32.351Z,10.40
2023-02-16T12:15:07.611Z,10.30
2023-02-16T12:17:53.295Z,10.30
2023-02-16T12:20:34.948Z,10.30
2023-02-16T12:23:18.303Z,10.20
2023-02-16T12:25:55.387Z,10.20
2023-02-16T12:28:29.049Z,10.20
2023-02-16T12:31:09.647Z,10.20
2023-02-16T12:33:47.896Z,10.20
2023-02-16T12:36:47.543Z,10.20
2023-02-16T12:39:20.439Z,10.20
2023-02-16T12:42:08.172Z,10.20
2023-02-16T12:44:42.506Z,10.20
2023-02-16T12:47:14.943Z,10.20
2023-02-16T12:49:52.661Z,10.10
2023-02-16T12:52:33.929Z,10.10
2023-02-16T12:55:19.672Z,10.20
2023-02-16T12:57:54.992Z,10.20
2023-02-16T13:00:30.043Z,10.20
2023-02-16T13:03:09.857Z,10.20
2023-02-16T13:05:39.051Z,10.30
2023-02-16T13:08:17.575Z,10.30
2023-02-16T13:10:55.755Z,10.40
2023-02-16T13:13:27.656Z,10.40
2023-02-16T13:16:03.082Z,10.40
2023-02-16T13:18:34.016Z,10.40
2023-02-16T13:21:05.175Z,10.40
2023-02-16T13:23:54.614Z,10.50
2023-02-16T13:26:37.884Z,10.50
2023-02-16T13:29:41.318Z,10.60
2023-02-16T13:32:35.338Z,10.60
2023-02-16T13:35:21.989Z,10.70
2023-02-16T13:38:01.579Z,10.70
2023-02-16T13:40:57.777Z,10.80
2023-02-16T13:43:33.128Z,10.80
2023-02-16T13:46:07.447Z,10.80
2023-02-16T13:48:40.560Z,10.90
2023-02-16T13:51:14.328Z,10.90
2023-02-16T13:53:50.711Z,11.00
2023-02-16T13:56:33.134Z,11.00
2023-02-16T13:59:39.558Z,11.10
2023-02-16T14:02:12.770Z,11.10
2023-02-16T14:05:04.126Z,11.30
2023-02-16T14:07:38.023Z,11.40
2023-02-16T14:10:07.696Z,11.60
2023-02-16T14:12:41.833Z,11.80
2023-02-16T14:15:20.039Z,11.90
2023-02-16T14:17:48.156Z,12.00
2023-02-16T14:20:34.103Z,12.10
2023-02-16T14:23:02.404Z,12.40
2023-02-16T14:25:40.959Z,12.50
2023-02-16T14:28:42.261Z,12.40
2023-02-16T14:31:17.459Z,12.30
2023-02-16T14:33:50.155Z,12.30
2023-02-16T14:36:20.673Z,12.30
2023-02-16T14:38:50.038Z,12.30
2023-02-16T14:41:28.194Z,12.30
2023-02-16T14:44:27.136Z,12.30
2023-02-16T14:47:07.680Z,12.30
2023-02-16T14:50:12.244Z,12.30
2023-02-16T14:53:17.919Z,12.30
2023-02-16T14:56:46.633Z,12.30
2023-02-16T14:59:27.715Z,12.20
2023-02-16T15:01:55.930Z,12.20
2023-02-16T15:04:32.694Z,12.20
2023-02-16T15:07:04.898Z,12.20
2023-02-16T15:09:35.101Z,12.10
2023-02-16T15:12:24.588Z,12.10
2023-02-16T15:14:55.523Z,12.00
2023-02-16T15:17:31.714Z,12.00
2023-02-16T15:20:07.499Z,11.90
2023-02-16T15:22:38.747Z,11.90
2023-02-16T15:25:20.868Z,11.90
2023-02-16T15:27:59.099Z,11.80
2023-02-16T15:30:29.791Z,11.80
2023-02-16T15:33:00.059Z,11.80
2023-02-16T15:35:35.465Z,11.70
2023-02-16T15:38:06.002Z,11.70
2023-02-16T15:40:35.236Z,11.70
2023-02-16T15:43:10.850Z,11.60
2023-02-16T15:45:39.552Z,11.60
2023-02-16T15:48:21.561Z,11.50
2023-02-16T15:50:53.512Z,11.60
2023-02-16T15:53:32.685Z,11.70
2023-02-16T15:56:05.353Z,11.80
2023-02-16T15:58:34.256Z,11.70
2023-02-16T16:01:02.891Z,11.60
2023-02-16T16:03:31.326Z,11.60
2023-02-16T16:06:05.001Z,11.50
2023-02-16T16:08:33.654Z,11.50
2023-02-16T16:11:01.986Z,11.40
2023-02-16T16:13:32.094Z,11.40
2023-02-16T16:16:04.534Z,11.30
2023-02-16T16:18:41.128Z,11.30
2023-02-16T16:21:18.850Z,11.20
2023-02-16T16:24:02.413Z,11.20
2023-02-16T16:26:33.459Z,11.20
2023-02-16T16:29:01.897Z,11.20
2023-02-16T16:31:42.683Z,11.10
2023-02-16T16:34:30.909Z,11.10
2023-02-16T16:37:02.620Z,11.00
2023-02-16T16:39:32.210Z,11.00
2023-02-16T16:42:22.308Z,11.00
2023-02-16T16:45:03.042Z,11.00
2023-02-16T16:47:34.680Z,11.00
2023-02-16T16:50:07.402Z,11.00
2023-02-16T16:52:42.711Z,10.90
2023-02-16T16:55:23.569Z,10.90
2023-02-16T16:57:53.514Z,10.80
2023-02-16T17:00:22.770Z,10.80
2023-02-16T17:02:50.985Z,10.80
2023-02-16T17:05:19.568Z,10.80
2023-02-16T17:07:51.522Z,10.70
2023-02-16T17:10:21.561Z,10.70
2023-02-16T17:12:53.862Z,10.70
2023-02-16T17:15:33.208Z,10.60
2023-02-16T17:18:02.065Z,10.60
2023-02-16T17:20:30.140Z,10.60
2023-02-16T17:23:04.360Z,10.60
2023-02-16T17:25:34.411Z,10.60
2023-02-16T17:28:02.614Z,10.60
2023-02-16T17:30:30.842Z,10.60
2023-02-16T17:32:59.295Z,10.60
2023-02-16T17:35:27.318Z,10.60
2023-02-16T17:37:55.324Z,10.60
2023-02-16T17:40:26.136Z,10.60
2023-02-16T17:42:54.176Z,10.60
2023-02-16T17:45:23.457Z,10.70
2023-02-16T17:47:53.209Z,10.70
2023-02-16T17:50:22.028Z,10.80
2023-02-16T17:52:50.150Z,10.80
2023-02-16T17:55:18.497Z,10.90
2023-02-16T17:57:47.858Z,11.00
2023-02-16T18:00:20.038Z,11.00
2023-02-16T18:02:48.261Z,11.10
2023-02-16T18:05:16.482Z,11.10
2023-02-16T18:07:44.528Z,11.10
2023-02-16T18:10:19.443Z,11.10
2023-02-16T18:12:48.810Z,11.10
2023-02-16T18:15:16.981Z,11.00
2023-02-16T18:17:45.030Z,11.10
2023-02-16T18:20:16.388Z,11.10
2023-02-16T18:22:44.527Z,11.10
2023-02-16T18:25:12.733Z,11.10
2023-02-16T18:27:40.785Z,11.10
2023-02-16T18:30:11.803Z,11.10
2023-02-16T18:32:41.790Z,11.10
2023-02-16T18:35:10.683Z,11.10
2023-02-16T18:37:39.635Z,11.10
2023-02-16T18:40:09.863Z,11.10
2023-02-16T18:42:38.344Z,11.10
2023-02-16T18:45:07.298Z,11.10
2023-02-16T18:47:36.677Z,11.10
2023-02-16T18:50:05.790Z,11.00
2023-02-16T18:52:33.810Z,11.00
2023-02-16T18:55:01.838Z,11.00
2023-02-16T18:57:29.816Z,11.00
2023-02-16T18:59:59.194Z,11.00
2023-02-16T19:02:27.491Z,11.00
2023-02-16T19:04:56.837Z,11.00
2023-02-16T19:07:24.860Z,11.00
2023-02-16T19:09:52.939Z,11.00
2023-02-16T19:12:21.005Z,11.00
2023-02-16T19:14:49.129Z,11.00
2023-02-16T19:17:17.300Z,11.00
2023-02-16T19:19:45.297Z,11.00
2023-02-16T19:22:15.036Z,10.90
2023-02-16T19:24:43.060Z,11.00
2023-02-16T19:27:11.323Z,10.90
2023-02-16T19:29:39.559Z,10.90
2023-02-16T19:32:07.676Z,11.00
2023-02-16T19:34:36.221Z,10.90
2023-02-16T19:37:04.253Z,10.90
2023-02-16T19:39:33.642Z,10.90
2023-02-16T19:42:01.668Z,10.80
2023-02-16T19:44:29.796Z,10.80
2023-02-16T19:46:57.838Z,10.80
2023-02-16T19:49:25.857Z,10.80
2023-02-16T19:51:54.953Z,10.80
2023-02-16T19:54:25.139Z,10.80
2023-02-16T19:56:54.623Z,10.80
2023-02-16T19:59:23.159Z,10.80
2023-02-16T20:01:51.185Z,10.80
2023-02-16T20:04:19.381Z,10.80
2023-02-16T20:06:47.524Z,10.80
2023-02-16T20:09:17.595Z,10.80
2023-02-16T20:11:45.628Z,10.80
2023-02-16T20:14:15.580Z,10.80
2023-02-16T20:16:44.020Z,10.80
2023-02-16T20:19:12.209Z,10.80
2023-02-16T20:21:43.991Z,10.80
2023-02-16T20:24:13.170Z,10.80
2023-02-16T20:26:43.414Z,10.80
2023-02-16T20:29:16.160Z,10.80
2023-02-16T20:31:48.834Z,10.80
2023-02-16T20:34:17.197Z,10.80
2023-02-16T20:36:45.247Z,10.80
2023-02-16T20:39:13.306Z,10.80
2023-02-16T20:41:41.469Z,10.80
2023-02-16T20:44:10.482Z,10.80
2023-02-16T20:46:40.970Z,10.80
2023-02-16T20:49:10.126Z,10.80
2023-02-16T20:51:38.744Z,10.80
2023-02-16T20:54:07.345Z,10.80
2023-02-16T20:56:35.544Z,10.80
2023-02-16T20:59:03.803Z,10.80
2023-02-16T21:01:34.588Z,10.80
2023-02-16T21:04:04.742Z,10.80
2023-02-16T21:06:32.724Z,10.80
2023-02-16T21:09:00.769Z,10.80
2023-02-16T21:11:28.835Z,10.80
2023-02-16T21:13:58.196Z,10.80
2023-02-16T21:16:26.869Z,10.70
2023-02-16T21:18:55.671Z,10.70
2023-02-16T21:21:25.504Z,10.70
2023-02-16T21:23:55.211Z,10.70
2023-02-16T21:26:25.429Z,10.70
2023-02-16T21:28:54.400Z,10.70
2023-02-16T21:31:25.175Z,10.60
2023-02-16T21:33:54.210Z,10.60
2023-02-16T21:36:25.884Z,10.60
2023-02-16T21:38:54.076Z,10.60
2023-02-16T21:41:25.639Z,10.60
2023-02-16T21:43:55.700Z,10.60
2023-02-16T21:46:24.371Z,10.60
2023-02-16T21:48:51.806Z,10.60
2023-02-16T21:51:24.047Z,10.60
2023-02-16T21:53:54.597Z,10.60
2023-02-16T21:56:30.788Z,10.60
2023-02-16T21:58:59.076Z,10.70
2023-02-16T22:01:29.044Z,10.70
2023-02-16T22:03:58.672Z,10.60
2023-02-16T22:06:28.179Z,10.60
2023-02-16T22:08:57.509Z,10.60
2023-02-16T22:11:25.672Z,10.60
2023-02-16T22:13:55.789Z,10.60
2023-02-16T22:16:24.996Z,10.60
2023-02-16T22:18:58.296Z,10.60
2023-02-16T22:21:26.534Z,10.50
2023-02-16T22:23:54.875Z,10.50
2023-02-16T22:26:26.334Z,10.50
2023-02-16T22:28:55.398Z,10.50
2023-02-16T22:31:25.029Z,10.50
2023-02-16T22:33:57.050Z,10.50
2023-02-16T22:36:25.315Z,10.40
2023-02-16T22:38:53.656Z,10.40
2023-02-16T22:41:22.283Z,10.40
2023-02-16T22:43:55.015Z,10.40
2023-02-16T22:46:24.481Z,10.40
2023-02-16T22:48:52.949Z,10.40
2023-02-16T22:51:22.466Z,10.40
2023-02-16T22:53:50.496Z,10.40
2023-02-16T22:56:19.973Z,10.40
2023-02-16T22:58:48.440Z,10.50
2023-02-16T23:01:20.315Z,10.40
2023-02-16T23:03:49.170Z,10.40
2023-02-16T23:06:19.374Z,10.50
2023-02-16T23:08:52.269Z,10.40
2023-02-16T23:11:20.345Z,10.50
2023-02-16T23:13:48.468Z,10.50
2023-02-16T23:16:21.249Z,10.50
2023-02-16T23:18:50.226Z,10.50
2023-02-16T23:21:19.548Z,10.50
2023-02-16T23:23:48.845Z,10.60
2023-02-16T23:26:17.410Z,10.60
2023-02-16T23:28:46.171Z,10.60
2023-02-16T23:31:14.285Z,10.60
2023-02-16T23:33:43.799Z,10.70
2023-02-16T23:36:11.881Z,10.70
2023-02-16T23:38:40.107Z,10.80
2023-02-16T23:41:09.959Z,10.80
2023-02-16T23:43:38.471Z,10.80
2023-02-16T23:46:07.580Z,10.80
2023-02-16T23:48:35.858Z,10.90
2023-02-16T23:51:05.484Z,11.00
2023-02-16T23:53:33.758Z,11.00
2023-02-16T23:56:03.876Z,11.10
2023-02-16T23:58:36.165Z,11.10
